Search for airport 
image banner adimage banner adimage banner ad
image banner ad

7G4 - Blue Knob Valley

Located in Newry, United States

ICAO - 7G4, IATA -

Data provided by Airmate  

General information

Coordinates: N40°23'47" W78°27'13"
Elevation is 1270 feet MSL.
Magnetic variation is -09° East
View others Airports in Pennsylvania

Operational data

Special qualification required
Current time UTC:
Current local time:
Weather at : KAOO - Altoona-Blair County ( 16 km )
METAR: KAOO 182353Z AUTO 19004KT 10SM CLR 23/06 A3029 RMK AO2 SLP253 T02280056 10261 20228 56004
TAF: KAOO 182341Z 1900/1924 VRB04KT P6SM SKC FM190600 00000KT P6SM SKC FM191400 VRB04KT P6SM SCT250
View NOTAMs / SUP AIP / TFR affecting this airport [VIEW]
Communications frequencies: [VIEW]

Runways:

RWY identifierQFULength (ft)Width (ft)SurfaceLDA (ft)
11341589GRAVEL
29341589GRAVEL

Airport contact information

Address: Newry United States

Satellite view of 7G4